Aérodrome :
LOGIN :

S'inscrire | Disclaimer

   EN    FR    IT 

 










Légende :    VFR   VFR Marginal   IFR   IFR Intensif   IFR Très Intensif
Visi : 
Plafond : 
>= 8 km
>= 3000ft
5 à 8 km
1000 à 3000 ft
1500m à 5 km
500 à 1000 ft
800 à 1500m
200 à 500 ft
< 800m
< 200 ft
Symboles :   Orages  Brouillard  Fortes neiges  Fortes précipitations  Vent > 20 kt
SIGMETs :   Divers  Orages  Givrage  Turbulence  Onde Orograph.  Cendres Volcan.






- Altitude de l'aérodrome : 1079 ft


ETIK - Illesheim Air Base

DERNIER METAR :
  • 190256Z AUTO 10003KT 9999 CLR 06/06 A3017 RMK AO2 SLP217 T00600057 57013 $

METARs EXPIRÉS :
  • 190156Z AUTO 00000KT 9999 CLR 06/05 A3019 RMK AO2 SLP224 T00620047 $
  • 190056Z AUTO 12004KT 9999 CLR 09/06 A3020 RMK AO2 SLP225 T00940059

TAF TAF ETIK
Valide du 18 à 14h jusqu'au 19 à 20h UTC


1814/1920 09012KT 9999 SKC QNH3021INS
BECMG 1821/1822 VRB06KT 9999 SKC QNH3015INS
BECMG 1908/1909 09012KT 9999 SKC QNH3003INS
BECMG 1917/1918 VRB06KT 9999 SKC QNH3003INS TX20/1814Z TN07/1905Z LAST NO AMDS AFT 1816 NEXT 2106



MET'MAP, la Météo Aéronautique d'un coup d'oeil ! - Copyright ORBIFLY Décembre 2007 - Disclaimer

ORBIFLY MET'MAP TEAM :

Programmation & Développement : Alexandra Zaïnal
Sur une idée originale de : Baudouin d'Aumeries
Assistance à la programmation : Marc-Olivier Méhu
Soutien technique & logistique : Manuel Goepfert

Contact : metmap@orbifly.com




SOURCES & CREDITS :

   NOAA